Time;durP1;ratioP1;P1;durP2;ratioP2;P2;SDS_P1;SDS_P2;PMS_P1;PMS_P2;Temp;Humidity;BMP_temperature;BMP_pressure;BME280_temperature;BME280_humidity;BME280_pressure;Samples;Min_cycle;Max_cycle;Signal;HPM_P1;HPM_P2
2022/10/08 00:01:09;;;;;;;15.70;11.85;;;;;;;8.57;74.71;97700.69;1734124;82;27375;-87
2022/10/08 00:03:39;;;;;;;14.60;10.65;;;;;;;8.56;74.66;97699.05;1734141;82;25243;-86
2022/10/08 00:06:13;;;;;;;20.00;12.15;;;;;;;8.50;74.60;97693.58;1734177;82;25768;-86
2022/10/08 00:08:45;;;;;;;17.15;11.50;;;;;;;8.41;74.73;97692.05;1734193;82;26580;-86
2022/10/08 00:11:16;;;;;;;18.17;11.93;;;;;;;8.30;74.86;97686.11;1734374;82;25833;-87
2022/10/08 00:13:46;;;;;;;18.37;11.57;;;;;;;8.34;75.14;97683.05;1733870;82;27425;-87
2022/10/08 00:16:26;;;;;;;17.15;11.45;;;;;;;8.38;75.15;97683.84;1733756;82;25912;-87
2022/10/08 00:18:57;;;;;;;15.43;11.85;;;;;;;8.39;75.15;97680.63;1734165;82;25801;-87
2022/10/08 00:21:37;;;;;;;21.57;11.65;;;;;;;8.38;75.20;97677.63;1732787;82;25859;-88
2022/10/08 00:24:07;;;;;;;15.75;11.35;;;;;;;8.32;75.15;97674.36;1733878;82;25892;-87
2022/10/08 00:26:35;;;;;;;16.25;11.48;;;;;;;8.29;75.20;97669.66;1734022;82;27375;-87
2022/10/08 00:29:05;;;;;;;20.45;11.80;;;;;;;8.30;75.18;97673.17;1734003;82;26466;-87
2022/10/08 00:31:35;;;;;;;17.90;11.95;;;;;;;8.26;75.30;97664.64;1734007;82;25702;-87
2022/10/08 00:34:07;;;;;;;15.70;11.73;;;;;;;8.25;75.53;97665.66;1734018;82;25747;-87
2022/10/08 00:36:36;;;;;;;18.02;11.45;;;;;;;8.24;75.58;97661.81;1734076;82;25795;-87
2022/10/08 00:39:10;;;;;;;17.25;12.18;;;;;;;8.18;75.58;97663.94;1734070;82;27359;-87
2022/10/08 00:41:37;;;;;;;14.90;11.70;;;;;;;8.17;75.72;97655.03;1734105;82;25821;-86
2022/10/08 00:44:45;;;;;;;13.90;10.98;;;;;;;8.18;75.66;97659.39;1734006;82;25275;-88
2022/10/08 00:47:23;;;;;;;17.10;10.48;;;;;;;8.16;75.58;97654.71;1734123;82;25784;-87
2022/10/08 00:49:55;;;;;;;16.45;10.90;;;;;;;8.08;75.61;97641.39;1734169;82;25264;-87
2022/10/08 00:52:24;;;;;;;13.15;9.95;;;;;;;8.11;75.59;97644.19;1734157;82;27376;-88
2022/10/08 00:54:51;;;;;;;16.20;10.18;;;;;;;8.10;75.62;97640.67;1734035;82;25454;-86
2022/10/08 00:57:20;;;;;;;14.73;10.82;;;;;;;8.09;75.60;97637.66;1744699;82;25761;-86
2022/10/08 00:59:47;;;;;;;15.15;10.08;;;;;;;8.04;75.59;97633.89;1745425;82;25880;-85
2022/10/08 01:02:14;;;;;;;12.80;9.80;;;;;;;8.04;75.70;97629.86;1745521;81;25717;-86
2022/10/08 01:04:43;;;;;;;16.30;9.88;;;;;;;8.05;75.66;97634.21;1745499;81;27445;-87
2022/10/08 01:07:33;;;;;;;12.98;10.72;;;;;;;8.03;75.63;97633.05;1704747;83;25932;-87
2022/10/08 01:10:32;;;;;;;18.92;12.70;;;;;;;8.01;75.64;97628.38;1674982;85;25752;-87
2022/10/08 01:13:38;;;;;;;15.93;10.43;;;;;;;7.91;75.72;97625.99;1675026;85;25710;-85
2022/10/08 01:16:22;;;;;;;19.45;10.48;;;;;;;7.87;76.01;97622.52;1745342;81;25911;-87
2022/10/08 01:19:12;;;;;;;16.55;10.40;;;;;;;7.90;76.03;97624.84;1744092;81;27394;-87
2022/10/08 01:21:46;;;;;;;23.12;10.80;;;;;;;7.91;75.89;97618.44;1744979;81;25960;-87
2022/10/08 01:25:31;;;;;;;16.90;10.72;;;;;;;7.91;76.04;97621.13;1745181;81;25973;-87
2022/10/08 01:27:01;;;;;;;14.40;10.18;;;;;;;7.88;76.18;97616.13;1741512;82;26509;-86
2022/10/08 01:29:39;;;;;;;21.93;11.12;;;;;;;7.80;76.28;97609.02;1745690;81;25798;-87
2022/10/08 01:32:13;;;;;;;19.12;11.15;;;;;;;7.74;76.41;97612.44;1744552;81;27390;-87
2022/10/08 01:34:57;;;;;;;17.62;10.40;;;;;;;7.72;76.54;97606.96;1704974;83;25851;-87
2022/10/08 01:37:33;;;;;;;19.75;12.13;;;;;;;7.73;76.62;97605.40;1675100;85;25768;-87
2022/10/08 01:40:05;;;;;;;21.02;11.22;;;;;;;7.72;76.63;97600.24;1745411;81;26402;-87
2022/10/08 01:42:35;;;;;;;20.20;11.75;;;;;;;7.74;76.63;97598.17;1745486;81;25700;-87
2022/10/08 01:45:06;;;;;;;16.52;10.58;;;;;;;7.76;76.58;97600.17;1745473;82;27461;-86
2022/10/08 01:47:38;;;;;;;12.53;9.85;;;;;;;7.74;76.44;97599.00;1745584;81;25716;-86
2022/10/08 01:50:22;;;;;;;16.85;10.82;;;;;;;7.73;76.29;97593.84;1675185;84;25819;-88
2022/10/08 01:52:57;;;;;;;17.23;10.75;;;;;;;7.57;76.19;97589.01;1745396;82;25816;-86
2022/10/08 01:55:38;;;;;;;16.75;9.33;;;;;;;7.50;76.44;97589.92;1745164;81;25752;-87
2022/10/08 01:58:27;;;;;;;18.32;10.55;;;;;;;7.53;76.67;97586.36;1736946;82;27454;-86
2022/10/08 02:00:57;;;;;;;18.92;11.45;;;;;;;7.56;76.68;97591.37;1724276;82;25855;-86
2022/10/08 02:03:23;;;;;;;23.67;12.05;;;;;;;7.54;76.82;97590.72;1714060;82;25330;-87
2022/10/08 02:05:53;;;;;;;14.93;11.33;;;;;;;7.50;76.88;97592.61;1736905;82;25812;-87
2022/10/08 02:08:21;;;;;;;15.20;10.88;;;;;;;7.51;77.07;97592.42;1737164;81;25723;-87
2022/10/08 02:10:49;;;;;;;16.67;10.72;;;;;;;7.54;77.07;97586.69;1736797;81;27489;-88
2022/10/08 02:13:16;;;;;;;14.20;11.20;;;;;;;7.57;77.02;97584.14;1736788;82;25757;-87
2022/10/08 02:15:54;;;;;;;18.25;12.23;;;;;;;7.54;76.89;97585.34;1736794;82;25741;-86
2022/10/08 02:18:38;;;;;;;22.30;11.57;;;;;;;7.44;76.90;97582.12;1736986;82;26578;-87
2022/10/08 02:21:13;;;;;;;18.12;10.55;;;;;;;7.39;77.07;97584.52;1737083;81;25797;-87
2022/10/08 02:23:44;;;;;;;14.93;11.08;;;;;;;7.40;77.23;97590.22;1737078;81;27393;-88
2022/10/08 02:26:19;;;;;;;16.95;11.45;;;;;;;7.42;77.27;97585.50;1737023;82;31474;-86
2022/10/08 02:28:57;;;;;;;14.70;10.18;;;;;;;7.39;77.29;97586.38;1737061;82;25721;-86
2022/10/08 02:31:44;;;;;;;13.68;10.25;;;;;;;7.37;77.23;97587.91;1735319;82;25794;-86
2022/10/08 02:34:40;;;;;;;16.57;10.10;;;;;;;7.37;77.11;97590.59;1736484;82;26388;-86
2022/10/08 02:37:18;;;;;;;17.50;12.20;;;;;;;7.30;77.00;97593.70;1736944;82;27442;-86
2022/10/08 02:39:49;;;;;;;19.98;11.45;;;;;;;7.28;77.06;97591.71;1735277;82;25950;-86
2022/10/08 02:42:21;;;;;;;16.53;11.37;;;;;;;7.24;77.04;97585.06;1737212;81;25771;-87
2022/10/08 02:45:06;;;;;;;16.12;9.30;;;;;;;7.24;77.06;97578.36;1737385;82;25771;-87
2022/10/08 02:47:36;;;;;;;16.55;9.55;;;;;;;7.27;77.13;97588.70;1737200;82;26536;-87
2022/10/08 02:50:10;;;;;;;13.72;9.00;;;;;;;7.27;77.04;97582.50;1737127;82;27462;-87
2022/10/08 02:52:41;;;;;;;15.35;9.90;;;;;;;7.22;77.08;97577.70;1737291;81;25829;-86
2022/10/08 02:55:38;;;;;;;20.08;10.68;;;;;;;7.17;77.12;97577.41;1736932;82;25812;-86
2022/10/08 02:58:08;;;;;;;14.00;11.33;;;;;;;7.16;77.24;97573.89;1737267;81;25709;-87
2022/10/08 03:00:40;;;;;;;16.48;11.00;;;;;;;7.06;77.27;97571.17;1737333;82;25260;-86
2022/10/08 03:03:12;;;;;;;20.72;11.90;;;;;;;7.05;77.34;97582.92;1736148;82;27528;-87
2022/10/08 03:05:41;;;;;;;47.67;24.53;;;;;;;6.98;77.31;97576.13;1737277;81;25795;-87
2022/10/08 03:08:12;;;;;;;61.50;32.98;;;;;;;6.94;77.45;97576.67;1737198;81;25676;-87
2022/10/08 03:10:41;;;;;;;57.45;31.07;;;;;;;6.96;77.63;97584.87;1737122;81;26697;-87
2022/10/08 03:13:08;;;;;;;31.48;19.25;;;;;;;6.99;77.71;97580.48;1736971;81;25683;-87
2022/10/08 03:15:36;;;;;;;22.70;13.88;;;;;;;7.01;77.72;97574.91;1736823;82;27437;-87
2022/10/08 03:18:08;;;;;;;18.98;11.40;;;;;;;7.04;77.77;97579.91;1736964;82;25818;-87
2022/10/08 03:20:45;;;;;;;19.95;10.63;;;;;;;7.07;77.72;97584.92;1736553;82;25793;-88
2022/10/08 03:23:16;;;;;;;15.60;11.63;;;;;;;7.03;77.64;97578.24;1736805;82;26504;-86
2022/10/08 03:25:42;;;;;;;13.05;8.28;;;;;;;7.04;77.73;97571.86;1737051;81;26180;-87
2022/10/08 03:28:09;;;;;;;16.65;10.38;;;;;;;7.01;77.54;97577.59;1736923;82;28151;-87
2022/10/08 03:30:36;;;;;;;13.50;8.68;;;;;;;6.98;77.47;97576.64;1736891;82;25825;-87
2022/10/08 03:33:02;;;;;;;13.98;9.73;;;;;;;6.97;77.55;97576.31;1736992;81;25725;-87
2022/10/08 03:35:29;;;;;;;34.20;19.62;;;;;;;7.00;77.52;97575.95;1736983;82;25767;-87
2022/10/08 03:37:56;;;;;;;39.58;22.00;;;;;;;6.99;77.49;97577.80;1737233;82;25738;-86
2022/10/08 03:40:22;;;;;;;35.03;21.60;;;;;;;6.99;77.39;97575.12;1737039;82;27421;-87
2022/10/08 03:42:50;;;;;;;29.42;19.82;;;;;;;6.94;77.40;97574.83;1736921;81;25834;-87
2022/10/08 03:45:17;;;;;;;29.72;16.05;;;;;;;6.95;77.47;97570.30;1737097;81;26451;-87
2022/10/08 03:47:43;;;;;;;22.60;14.07;;;;;;;6.96;77.35;97581.36;1737123;82;25858;-86
2022/10/08 03:50:10;;;;;;;18.60;11.33;;;;;;;6.94;77.38;97583.38;1736963;82;25702;-86
2022/10/08 03:52:36;;;;;;;16.60;11.05;;;;;;;6.84;77.28;97580.98;1737157;82;27468;-86
2022/10/08 03:55:03;;;;;;;19.27;12.23;;;;;;;6.75;77.52;97582.08;1736869;82;26368;-87
2022/10/08 03:57:30;;;;;;;15.40;10.50;;;;;;;6.73;77.85;97572.88;1734985;82;25801;-86
2022/10/08 03:59:56;;;;;;;17.70;10.43;;;;;;;6.74;77.92;97577.22;1734104;82;26600;-86
2022/10/08 04:02:23;;;;;;;21.87;11.75;;;;;;;6.77;77.92;97580.86;1734120;82;25781;-86
2022/10/08 04:04:49;;;;;;;24.92;14.28;;;;;;;6.79;77.87;97574.80;1734228;82;27375;-87
2022/10/08 04:07:16;;;;;;;21.50;16.77;;;;;;;6.77;77.95;97566.61;1733973;82;25711;-87
2022/10/08 04:09:43;;;;;;;23.77;14.85;;;;;;;6.74;77.92;97571.86;1734204;82;25208;-88
2022/10/08 04:12:09;;;;;;;21.02;14.38;;;;;;;6.75;78.01;97566.82;1734107;82;25760;-87
2022/10/08 04:14:36;;;;;;;21.97;14.58;;;;;;;6.71;77.95;97558.80;1734167;82;25675;-87
2022/10/08 04:17:02;;;;;;;21.65;14.03;;;;;;;6.73;78.00;97566.67;1733921;82;28267;-87
2022/10/08 04:19:29;;;;;;;45.15;24.72;;;;;;;6.72;77.98;97564.50;1733837;82;25857;-87
2022/10/08 04:21:56;;;;;;;44.93;25.50;;;;;;;6.74;77.99;97565.16;1734181;82;25769;-86
2022/10/08 04:24:23;;;;;;;36.35;19.90;;;;;;;6.74;77.97;97566.48;1734080;82;26451;-87
2022/10/08 04:26:49;;;;;;;27.17;15.55;;;;;;;6.74;78.04;97562.97;1734246;82;25257;-86
2022/10/08 04:29:16;;;;;;;26.25;16.10;;;;;;;6.71;78.25;97563.33;1734096;82;27517;-85
2022/10/08 04:31:42;;;;;;;31.60;16.12;;;;;;;6.71;78.40;97560.14;1734145;82;25771;-86
2022/10/08 04:34:10;;;;;;;21.75;12.50;;;;;;;6.72;78.29;97571.20;1734184;82;25726;-86
2022/10/08 04:36:38;;;;;;;18.48;10.93;;;;;;;6.73;78.21;97565.33;1734185;82;26375;-86
2022/10/08 04:39:05;;;;;;;13.55;9.15;;;;;;;6.73;78.10;97568.84;1734122;82;25949;-87
2022/10/08 04:41:31;;;;;;;12.37;9.03;;;;;;;6.70;77.98;97570.55;1734139;82;27353;-87
2022/10/08 04:44:00;;;;;;;13.48;9.25;;;;;;;6.66;77.98;97567.06;1734088;82;25702;-85
2022/10/08 04:46:26;;;;;;;18.98;9.58;;;;;;;6.66;78.16;97565.72;1734300;82;25695;-86
2022/10/08 04:48:55;;;;;;;16.25;10.75;;;;;;;6.68;78.25;97568.55;1734381;82;26420;-86
2022/10/08 04:51:24;;;;;;;19.90;11.28;;;;;;;6.70;78.26;97570.55;1734197;82;25682;-85
2022/10/08 04:53:55;;;;;;;19.42;12.20;;;;;;;6.67;78.43;97568.22;1708668;82;46918;-86
2022/10/08 04:56:25;;;;;;;15.38;11.73;;;;;;;6.60;78.40;97566.46;1734061;82;25857;-87
2022/10/08 04:58:53;;;;;;;21.48;12.93;;;;;;;6.61;78.50;97568.97;1733964;82;25228;-86
2022/10/08 05:01:22;;;;;;;32.38;15.78;;;;;;;6.63;78.47;97576.33;1734266;82;25784;-87
2022/10/08 05:03:52;;;;;;;66.87;32.28;;;;;;;6.64;78.52;97575.28;1734150;82;25786;-88
2022/10/08 05:06:23;;;;;;;53.13;25.90;;;;;;;6.64;78.52;97569.92;1734009;82;27425;-87
2022/10/08 05:08:50;;;;;;;41.42;22.20;;;;;;;6.65;78.52;97566.22;1733992;82;25892;-87
2022/10/08 05:11:18;;;;;;;42.62;22.50;;;;;;;6.65;78.60;97573.44;1734182;82;25813;-87
2022/10/08 05:13:50;;;;;;;30.48;19.10;;;;;;;6.63;78.58;97566.11;1733792;82;26405;-88
2022/10/08 05:16:17;;;;;;;;;;;;;;;6.64;78.67;97568.58;1736475;82;25895;-88
2022/10/08 05:18:44;;;;;;;32.45;18.92;;;;;;;6.66;78.79;97571.92;1733857;82;27605;-87
2022/10/08 05:21:14;;;;;;;28.15;15.78;;;;;;;6.62;78.81;97573.32;1734116;82;26112;-86
2022/10/08 05:23:42;;;;;;;20.10;12.75;;;;;;;6.56;79.00;97568.67;1734112;82;25703;-86
2022/10/08 05:26:19;;;;;;;22.98;14.25;;;;;;;6.52;79.20;97567.89;1734149;82;26458;-87
2022/10/08 05:28:47;;;;;;;22.13;12.58;;;;;;;6.54;79.33;97569.86;1732335;82;26435;-86
2022/10/08 05:31:15;;;;;;;23.42;15.43;;;;;;;6.54;79.42;97558.62;1734026;82;27383;-85
2022/10/08 05:33:42;;;;;;;25.52;15.50;;;;;;;6.57;79.49;97556.92;1733674;82;25741;-86
2022/10/08 05:36:19;;;;;;;20.62;13.22;;;;;;;6.62;79.55;97564.44;1734186;82;25826;-87
2022/10/08 05:38:47;;;;;;;26.17;14.53;;;;;;;6.67;79.78;97567.39;1734096;82;26527;-86
2022/10/08 05:41:18;;;;;;;19.62;13.10;;;;;;;6.70;79.79;97573.23;1734007;82;25710;-86
2022/10/08 05:43:47;;;;;;;19.25;12.37;;;;;;;6.75;79.79;97568.16;1734318;82;27438;-86
2022/10/08 05:46:14;;;;;;;22.02;12.53;;;;;;;6.78;79.76;97567.77;1734150;82;25710;-87
2022/10/08 05:48:41;;;;;;;21.10;11.35;;;;;;;6.77;79.67;97562.08;1734054;82;25821;-86
2022/10/08 05:51:16;;;;;;;17.85;12.00;;;;;;;6.83;79.71;97568.06;1734074;82;26739;-86
2022/10/08 05:53:45;;;;;;;15.78;10.93;;;;;;;6.88;79.78;97568.33;1734318;82;26414;-86
2022/10/08 05:56:15;;;;;;;16.40;11.20;;;;;;;6.95;79.74;97568.44;1734073;82;28005;-87
2022/10/08 05:58:43;;;;;;;18.32;11.95;;;;;;;7.01;79.70;97566.85;1736174;82;25859;-87
2022/10/08 06:01:19;;;;;;;22.35;13.22;;;;;;;7.04;79.78;97565.98;1736999;82;25771;-86
2022/10/08 06:03:50;;;;;;;21.97;13.83;;;;;;;7.11;79.91;97565.58;1737054;82;25793;-86
2022/10/08 06:06:18;;;;;;;22.30;14.43;;;;;;;7.19;80.07;97565.98;1736619;82;26483;-87
2022/10/08 06:08:45;;;;;;;28.15;13.13;;;;;;;7.26;80.24;97563.38;1736992;82;27363;-87
2022/10/08 06:11:12;;;;;;;22.85;11.97;;;;;;;7.34;80.36;97572.70;1736895;82;25757;-86
2022/10/08 06:13:39;;;;;;;27.55;11.57;;;;;;;7.41;80.48;97574.44;1737078;81;25718;-86
2022/10/08 06:16:09;;;;;;;21.85;11.73;;;;;;;7.48;80.57;97574.53;1736613;82;26533;-86
2022/10/08 06:18:39;;;;;;;18.85;11.43;;;;;;;7.54;80.70;97569.73;1737008;81;25717;-86
2022/10/08 06:21:10;;;;;;;19.57;11.53;;;;;;;7.61;80.78;97573.86;1737080;82;28367;-86
2022/10/08 06:23:41;;;;;;;22.87;11.75;;;;;;;7.68;80.88;97577.45;1737034;81;25291;-88
2022/10/08 06:26:09;;;;;;;21.62;11.68;;;;;;;7.77;81.16;97574.96;1736941;82;25756;-87
2022/10/08 06:28:37;;;;;;;22.42;11.97;;;;;;;7.85;81.33;97574.84;1737032;82;26504;-87
2022/10/08 06:31:05;;;;;;;22.10;11.05;;;;;;;7.94;81.66;97585.30;1737075;82;25855;-88
2022/10/08 06:33:33;;;;;;;20.10;11.30;;;;;;;8.06;81.75;97583.45;1737199;81;27320;-88
2022/10/08 06:36:06;;;;;;;19.07;11.65;;;;;;;8.17;81.87;97581.60;1737140;81;25731;-88
2022/10/08 06:38:33;;;;;;;18.25;12.55;;;;;;;8.26;82.05;97583.97;1737171;81;25821;-89
2022/10/08 06:41:00;;;;;;;16.85;13.08;;;;;;;8.37;82.07;97576.43;1737044;82;25810;-89
2022/10/08 06:43:27;;;;;;;18.87;13.03;;;;;;;8.46;82.14;97580.13;1737044;82;25741;-88
2022/10/08 06:45:55;;;;;;;14.58;11.85;;;;;;;8.55;82.32;97583.03;1737287;82;27439;-89
2022/10/08 06:48:22;;;;;;;20.68;11.95;;;;;;;8.67;82.47;97573.91;1737014;82;25886;-89
2022/10/08 06:51:00;;;;;;;20.08;11.83;;;;;;;8.79;82.53;97570.17;1737124;82;25716;-89
2022/10/08 06:53:27;;;;;;;18.23;12.33;;;;;;;8.90;82.59;97571.80;1737119;81;25772;-89
2022/10/08 06:55:59;;;;;;;24.70;14.18;;;;;;;9.02;82.70;97576.95;1737101;82;25817;-89
2022/10/08 06:58:26;;;;;;;27.40;13.98;;;;;;;9.14;82.71;97575.89;1737164;81;27446;-89
2022/10/08 07:01:16;;;;;;;32.90;18.75;;;;;;;9.27;82.89;97571.09;1737059;82;25743;-90
2022/10/08 07:03:43;;;;;;;25.85;16.55;;;;;;;9.41;82.93;97566.61;1737270;82;25895;-90
2022/10/08 07:06:12;;;;;;;25.82;14.68;;;;;;;9.60;83.07;97570.73;1713881;82;25755;-89
2022/10/08 07:08:39;;;;;;;24.72;13.18;;;;;;;9.81;83.19;97571.63;1737197;82;26156;-90
2022/10/08 07:11:10;;;;;;;21.42;13.08;;;;;;;10.03;83.23;97566.39;1736611;81;27433;-90
2022/10/08 07:13:37;;;;;;;22.20;11.85;;;;;;;10.26;83.32;97564.22;1737077;82;25765;-90
2022/10/08 07:16:07;;;;;;;21.80;11.63;;;;;;;10.51;83.14;97567.64;1737115;82;25951;-89
2022/10/08 07:18:35;;;;;;;19.10;11.15;;;;;;;10.77;82.92;97563.59;1737070;82;25729;-90
2022/10/08 07:21:03;;;;;;;19.12;11.78;;;;;;;11.03;82.79;97563.56;1736954;81;25760;-89
2022/10/08 07:23:30;;;;;;;16.77;11.00;;;;;;;11.30;82.67;97562.16;1737126;82;27310;-88
2022/10/08 07:26:13;;;;;;;17.23;11.08;;;;;;;11.57;82.52;97549.40;1736851;82;25777;-89
2022/10/08 07:28:43;;;;;;;15.30;9.45;;;;;;;11.84;82.12;97546.89;1737018;81;25857;-90
2022/10/08 07:31:17;;;;;;;18.98;10.90;;;;;;;12.13;81.87;97549.55;1737006;82;25753;-88
2022/10/08 07:33:44;;;;;;;22.32;10.40;;;;;;;12.43;81.51;97551.14;1736865;82;25738;-89
2022/10/08 07:36:21;;;;;;;15.15;10.00;;;;;;;12.72;81.18;97549.64;1736747;82;27396;-90
2022/10/08 07:38:57;;;;;;;17.82;8.25;;;;;;;13.00;80.69;97552.73;1737108;82;25782;-89
2022/10/08 07:41:24;;;;;;;21.62;10.98;;;;;;;13.34;80.55;97544.06;1736607;82;25813;-90
2022/10/08 07:43:53;;;;;;;18.90;9.30;;;;;;;13.71;80.22;97541.34;1737057;82;25802;-88
2022/10/08 07:46:21;;;;;;;13.55;8.35;;;;;;;14.03;79.99;97540.59;1737123;82;25814;-89
2022/10/08 07:48:47;;;;;;;14.63;7.95;;;;;;;14.40;79.32;97539.45;1737064;81;28044;-90
2022/10/08 07:51:19;;;;;;;13.55;8.05;;;;;;;14.78;78.85;97537.70;1736851;82;25750;-90
2022/10/08 07:53:46;;;;;;;;;;;;;;;15.17;78.17;97536.70;1739307;82;25951;-91
2022/10/08 07:56:16;;;;;;;16.85;6.97;;;;;;;15.56;77.08;97538.41;1736977;81;26339;-91
2022/10/08 07:58:44;;;;;;;11.90;7.03;;;;;;;15.94;76.97;97537.27;1735181;82;25253;-93
2022/10/08 08:01:15;;;;;;;10.28;6.58;;;;;;;16.35;76.50;97538.05;1734103;82;27395;-90
2022/10/08 08:03:43;;;;;;;11.63;6.00;;;;;;;16.69;75.42;97535.69;1733319;82;25718;-94
2022/10/08 08:06:15;;;;;;;12.40;6.60;;;;;;;17.02;74.41;97535.42;1734046;82;25887;-84
2022/10/08 08:08:44;;;;;;;;;;;;;;;17.27;73.60;97531.14;1736864;82;26489;-89
2022/10/08 08:11:15;;;;;;;7.83;5.62;;;;;;;17.53;71.76;97534.23;1734293;82;25745;-90
2022/10/08 08:13:42;;;;;;;11.53;5.42;;;;;;;17.76;71.29;97534.55;1734299;82;28253;-86
2022/10/08 08:16:14;;;;;;;10.03;4.87;;;;;;;17.93;70.87;97529.86;1734097;82;25820;-85
2022/10/08 08:18:44;;;;;;;13.10;4.70;;;;;;;18.11;70.12;97529.54;1733339;82;25773;-85
2022/10/08 08:21:14;;;;;;;8.00;5.28;;;;;;;18.28;69.46;97530.25;1734176;82;25856;-88
2022/10/08 08:23:46;;;;;;;8.75;4.83;;;;;;;18.48;69.17;97525.52;1734275;82;25792;-88
2022/10/08 08:26:17;;;;;;;6.83;4.87;;;;;;;18.69;68.43;97527.95;1734579;82;27385;-87
2022/10/08 08:28:43;;;;;;;9.23;4.90;;;;;;;18.84;67.59;97523.95;1733813;82;25717;-87
2022/10/08 08:31:17;;;;;;;7.45;4.60;;;;;;;19.06;67.25;97525.25;1734102;82;25752;-85
2022/10/08 08:33:50;;;;;;;6.50;4.42;;;;;;;19.18;66.03;97512.73;1733972;82;26550;-86
2022/10/08 08:36:20;;;;;;;9.53;4.97;;;;;;;19.32;65.46;97512.56;1734099;82;25786;-89
2022/10/08 08:38:47;;;;;;;6.78;4.83;;;;;;;19.42;65.17;97507.14;1733885;82;28237;-87
2022/10/08 08:41:33;;;;;;;8.55;4.97;;;;;;;19.51;64.63;97510.22;1733965;82;25818;-87
2022/10/08 08:44:04;;;;;;;7.55;4.85;;;;;;;19.53;64.20;97504.77;1734279;82;25897;-89
2022/10/08 08:46:35;;;;;;;7.90;4.47;;;;;;;19.67;63.91;97508.67;1733639;82;26575;-89
2022/10/08 08:49:07;;;;;;;9.83;4.75;;;;;;;19.79;63.53;97500.23;1734119;82;25761;-89
2022/10/08 08:51:33;;;;;;;10.35;5.00;;;;;;;19.94;63.29;97493.96;1734024;82;27397;-90
2022/10/08 08:54:01;;;;;;;10.23;4.37;;;;;;;20.02;62.73;97499.77;1734162;82;25307;-90
2022/10/08 08:56:28;;;;;;;10.45;4.65;;;;;;;20.24;62.90;97498.72;1734071;82;25796;-90
2022/10/08 08:59:20;;;;;;;8.23;4.22;;;;;;;20.49;61.44;97500.16;1733922;82;26490;-89
2022/10/08 09:01:48;;;;;;;7.45;4.60;;;;;;;20.49;61.44;97500.16;1721346;83;26272;-90
2022/10/08 09:04:26;;;;;;;11.18;7.20;;;;;;;20.63;61.02;97496.34;1709011;82;27628;-91
2022/10/08 09:06:56;;;;;;;14.35;7.58;;;;;;;20.77;60.94;97492.75;1733980;82;25309;-91
2022/10/08 09:09:43;;;;;;;12.45;6.30;;;;;;;20.98;60.33;97486.73;1709180;82;26497;-91
2022/10/08 09:12:18;;;;;;;9.88;5.55;;;;;;;21.07;59.46;97483.69;1734149;82;26475;-84
2022/10/08 09:14:53;;;;;;;17.20;6.78;;;;;;;21.23;59.83;97479.59;1732874;82;25762;-88
2022/10/08 09:17:24;;;;;;;10.30;5.58;;;;;;;21.37;59.58;97480.66;1733543;82;27385;-85
2022/10/08 09:19:51;;;;;;;7.92;4.40;;;;;;;21.57;58.93;97481.96;1733782;82;26289;-86
2022/10/08 09:22:31;;;;;;;7.47;4.62;;;;;;;21.61;58.25;97478.94;1733941;82;25684;-87
2022/10/08 09:25:08;;;;;;;6.80;4.17;;;;;;;21.75;58.09;97478.58;1734373;82;25742;-85
2022/10/08 09:27:49;;;;;;;5.75;3.77;;;;;;;21.91;57.76;97479.34;1734025;82;25782;-84
2022/10/08 09:30:36;;;;;;;4.83;3.33;;;;;;;22.01;57.03;97474.38;1734226;82;28174;-88
2022/10/08 09:33:18;;;;;;;6.92;4.05;;;;;;;22.04;56.39;97476.56;1734167;82;25749;-87
2022/10/08 09:35:48;;;;;;;6.70;3.67;;;;;;;22.11;56.51;97468.27;1733504;82;26273;-89
2022/10/08 09:38:25;;;;;;;5.28;3.80;;;;;;;22.18;55.89;97471.53;1732878;82;26505;-88
2022/10/08 09:41:19;;;;;;;4.03;3.27;;;;;;;22.31;55.51;97475.59;1734081;82;25718;-87
2022/10/08 09:44:06;;;;;;;5.12;3.05;;;;;;;22.41;55.63;97470.01;1734280;82;27447;-89
2022/10/08 09:46:32;;;;;;;7.08;3.60;;;;;;;22.50;54.72;97465.54;1733540;82;25799;-89
2022/10/08 09:49:30;;;;;;;7.12;4.15;;;;;;;22.56;54.41;97467.16;1734124;82;25737;-87
2022/10/08 09:52:01;;;;;;;5.30;3.85;;;;;;;22.59;54.04;97462.44;1732340;82;26504;-86
2022/10/08 09:54:35;;;;;;;5.87;3.95;;;;;;;22.67;53.83;97458.27;1709419;82;25743;-87
2022/10/08 09:57:03;;;;;;;9.53;4.33;;;;;;;22.71;53.44;97447.48;1734116;82;27413;-88
2022/10/08 09:59:35;;;;;;;6.87;4.37;;;;;;;22.79;53.19;97455.17;1734137;82;26209;-84
2022/10/08 10:02:06;;;;;;;6.58;4.30;;;;;;;22.81;52.89;97455.16;1734492;82;25718;-83
2022/10/08 10:04:36;;;;;;;6.50;3.85;;;;;;;22.80;52.63;97449.38;1734443;82;25887;-85
2022/10/08 10:07:05;;;;;;;6.85;3.50;;;;;;;22.79;52.43;97451.05;1734089;82;25904;-84
2022/10/08 10:09:46;;;;;;;6.12;3.60;;;;;;;22.78;52.17;97446.64;1734119;82;28247;-84
2022/10/08 10:12:30;;;;;;;7.25;3.58;;;;;;;22.74;52.00;97451.04;1733950;82;25646;-86
2022/10/08 10:15:05;;;;;;;9.50;4.25;;;;;;;22.73;51.72;97440.59;1734390;82;25721;-86
2022/10/08 10:17:40;;;;;;;5.10;3.87;;;;;;;22.74;51.54;97431.78;1734405;82;25699;-91
2022/10/08 10:20:24;;;;;;;4.22;3.60;;;;;;;22.71;51.65;97430.42;1734248;82;25909;-88
2022/10/08 10:23:14;;;;;;;7.53;4.33;;;;;;;22.78;51.40;97434.27;1734317;82;27425;-86
2022/10/08 10:26:05;;;;;;;8.55;3.75;;;;;;;22.79;51.13;97429.03;1734620;82;26402;-92
2022/10/08 10:28:59;;;;;;;4.93;3.90;;;;;;;22.78;50.94;97419.95;1734346;82;25750;-88
2022/10/08 10:31:49;;;;;;;11.00;4.17;;;;;;;22.68;50.85;97413.69;1733503;82;25708;-88
2022/10/08 10:34:28;;;;;;;6.80;4.30;;;;;;;22.69;51.22;97412.58;1734507;82;25770;-89
2022/10/08 10:37:03;;;;;;;4.95;3.58;;;;;;;22.76;51.33;97414.47;1734184;82;27441;-90
2022/10/08 10:39:47;;;;;;;4.60;3.15;;;;;;;22.78;50.74;97415.00;1734568;82;25851;-88
2022/10/08 10:42:34;;;;;;;9.38;3.58;;;;;;;22.80;50.74;97407.28;1734331;82;25735;-89
2022/10/08 10:45:19;;;;;;;4.83;3.50;;;;;;;22.88;50.55;97395.63;1734320;82;26554;-91
2022/10/08 10:47:47;;;;;;;4.20;3.30;;;;;;;22.96;50.47;97396.37;1733173;82;25793;-92
2022/10/08 10:50:16;;;;;;;5.92;3.15;;;;;;;23.06;50.36;97382.52;1734860;82;27607;-92
2022/10/08 10:53:12;;;;;;;5.92;3.30;;;;;;;23.10;50.32;97382.18;1734433;82;25781;-96
2022/10/08 10:56:02;;;;;;;5.08;3.12;;;;;;;23.13;49.22;97383.53;1735464;82;25765;-93
2022/10/08 10:58:58;;;;;;;3.55;3.12;;;;;;;23.16;49.51;97376.89;1735192;82;25714;-87
2022/10/08 11:01:48;;;;;;;5.03;2.98;;;;;;;23.28;49.83;97367.66;1744323;81;26453;-92
2022/10/08 11:04:58;;;;;;;4.67;2.52;;;;;;;23.45;49.82;97366.34;1745176;81;27401;-92
2022/10/08 11:07:39;;;;;;;7.50;2.52;;;;;;;23.59;49.19;97363.16;1745458;82;25750;-91
2022/10/08 11:10:19;;;;;;;7.08;3.37;;;;;;;23.74;48.55;97361.59;1705176;84;25689;-88
2022/10/08 11:13:06;;;;;;;7.83;3.42;;;;;;;23.81;48.40;97355.13;1745240;81;26607;-86
2022/10/08 11:15:38;;;;;;;4.03;2.02;;;;;;;23.85;47.99;97358.13;1745659;81;25247;-95
2022/10/08 11:18:21;;;;;;;;;;;;;;;23.78;46.24;97353.55;1748195;81;28209;-93
2022/10/08 11:21:14;;;;;;;5.40;2.55;;;;;;;23.66;43.95;97361.70;1745484;81;25314;-94
2022/10/08 11:24:20;;;;;;;2.85;2.62;;;;;;;23.52;43.96;97354.45;1675226;84;25773;-87
2022/10/08 11:27:10;;;;;;;3.87;2.45;;;;;;;23.40;44.40;97348.52;1705229;83;25714;-90
2022/10/08 11:30:20;;;;;;;3.80;2.67;;;;;;;23.37;44.41;97346.34;1705130;84;25496;-94
2022/10/08 11:32:54;;;;;;;3.55;2.20;;;;;;;23.41;44.07;97350.16;1745823;81;27371;-88
2022/10/08 11:35:50;;;;;;;2.60;2.40;;;;;;;23.47;44.19;97351.72;1745446;81;25730;-88
2022/10/08 11:38:33;;;;;;;7.03;3.20;;;;;;;23.65;43.75;97347.66;1745354;82;25674;-87
2022/10/08 11:41:17;;;;;;;3.65;2.58;;;;;;;23.92;43.10;97343.39;1745468;81;25714;-91
2022/10/08 11:43:54;;;;;;;4.50;3.72;;;;;;;24.09;42.83;97340.94;1745689;81;26553;-91
2022/10/08 11:46:30;;;;;;;3.85;3.33;;;;;;;24.16;42.54;97338.61;1746221;82;27512;-91
2022/10/08 11:49:17;;;;;;;3.98;3.25;;;;;;;24.18;42.83;97335.55;1745799;82;25756;-87
2022/10/08 11:51:46;;;;;;;5.37;2.92;;;;;;;24.26;43.72;97328.02;1745642;81;26359;-88
2022/10/08 11:54:33;;;;;;;4.12;3.10;;;;;;;24.23;43.25;97324.48;1745456;82;25781;-87
2022/10/08 11:57:20;;;;;;;2.83;2.30;;;;;;;24.15;43.36;97319.63;1745714;81;25275;-89
2022/10/08 12:00:26;;;;;;;4.47;2.75;;;;;;;24.06;43.25;97321.67;1743153;81;28366;-92